sensor_id;sensor_type;location;lat;lon;timestamp;temperature;humidity
7472;DHT22;3777;48.722;8.110;2023-04-16T00:01:50;11.00;99.90
7472;DHT22;3777;48.722;8.110;2023-04-16T00:04:17;11.00;99.90
7472;DHT22;3777;48.722;8.110;2023-04-16T00:06:45;11.00;99.90
7472;DHT22;3777;48.722;8.110;2023-04-16T00:09:12;11.00;99.90
7472;DHT22;3777;48.722;8.110;2023-04-16T00:11:39;11.00;99.90
7472;DHT22;3777;48.722;8.110;2023-04-16T00:14:06;11.10;99.90
7472;DHT22;3777;48.722;8.110;2023-04-16T00:16:33;11.10;99.90
7472;DHT22;3777;48.722;8.110;2023-04-16T00:19:00;11.10;99.90
7472;DHT22;3777;48.722;8.110;2023-04-16T00:21:27;11.10;99.90
7472;DHT22;3777;48.722;8.110;2023-04-16T00:23:55;11.10;99.90
7472;DHT22;3777;48.722;8.110;2023-04-16T00:26:22;11.10;99.90
7472;DHT22;3777;48.722;8.110;2023-04-16T00:28:49;11.10;99.90
7472;DHT22;3777;48.722;8.110;2023-04-16T00:31:16;11.10;99.90
7472;DHT22;3777;48.722;8.110;2023-04-16T00:33:43;11.10;99.90
7472;DHT22;3777;48.722;8.110;2023-04-16T00:36:09;11.10;99.90
7472;DHT22;3777;48.722;8.110;2023-04-16T00:38:36;11.10;99.90
7472;DHT22;3777;48.722;8.110;2023-04-16T00:41:05;11.20;99.90
7472;DHT22;3777;48.722;8.110;2023-04-16T00:43:32;11.20;99.90
7472;DHT22;3777;48.722;8.110;2023-04-16T00:45:59;11.10;99.90
7472;DHT22;3777;48.722;8.110;2023-04-16T00:48:26;11.20;99.90
7472;DHT22;3777;48.722;8.110;2023-04-16T00:50:53;11.10;99.90
7472;DHT22;3777;48.722;8.110;2023-04-16T00:53:21;11.10;99.90
7472;DHT22;3777;48.722;8.110;2023-04-16T00:55:48;11.10;99.90
7472;DHT22;3777;48.722;8.110;2023-04-16T00:58:17;11.20;99.90
7472;DHT22;3777;48.722;8.110;2023-04-16T01:00:44;11.10;99.90
7472;DHT22;3777;48.722;8.110;2023-04-16T01:03:11;11.10;99.90
7472;DHT22;3777;48.722;8.110;2023-04-16T01:05:38;11.20;99.90
7472;DHT22;3777;48.722;8.110;2023-04-16T01:08:05;11.20;99.90
7472;DHT22;3777;48.722;8.110;2023-04-16T01:10:32;11.10;99.90
7472;DHT22;3777;48.722;8.110;2023-04-16T01:12:59;11.10;99.90
7472;DHT22;3777;48.722;8.110;2023-04-16T01:15:28;11.10;99.90
7472;DHT22;3777;48.722;8.110;2023-04-16T01:17:55;11.10;99.90
7472;DHT22;3777;48.722;8.110;2023-04-16T01:20:22;11.10;99.90
7472;DHT22;3777;48.722;8.110;2023-04-16T01:22:50;11.10;99.90
7472;DHT22;3777;48.722;8.110;2023-04-16T01:25:17;11.10;99.90
7472;DHT22;3777;48.722;8.110;2023-04-16T01:27:47;11.20;99.90
7472;DHT22;3777;48.722;8.110;2023-04-16T01:30:14;11.20;99.90
7472;DHT22;3777;48.722;8.110;2023-04-16T01:32:41;11.10;99.90
7472;DHT22;3777;48.722;8.110;2023-04-16T01:35:08;11.10;99.90
7472;DHT22;3777;48.722;8.110;2023-04-16T01:37:35;11.10;99.90
7472;DHT22;3777;48.722;8.110;2023-04-16T01:40:04;11.20;99.90
7472;DHT22;3777;48.722;8.110;2023-04-16T01:42:31;11.10;99.90
7472;DHT22;3777;48.722;8.110;2023-04-16T01:44:58;11.10;99.90
7472;DHT22;3777;48.722;8.110;2023-04-16T01:47:25;11.10;99.90
7472;DHT22;3777;48.722;8.110;2023-04-16T01:49:52;11.10;99.90
7472;DHT22;3777;48.722;8.110;2023-04-16T01:52:19;11.10;99.90
7472;DHT22;3777;48.722;8.110;2023-04-16T01:54:46;11.20;99.90
7472;DHT22;3777;48.722;8.110;2023-04-16T01:57:14;11.20;99.90
7472;DHT22;3777;48.722;8.110;2023-04-16T01:59:41;11.20;99.90
7472;DHT22;3777;48.722;8.110;2023-04-16T02:02:09;11.20;99.90
7472;DHT22;3777;48.722;8.110;2023-04-16T02:04:36;11.20;99.90
7472;DHT22;3777;48.722;8.110;2023-04-16T02:07:04;11.20;99.90
7472;DHT22;3777;48.722;8.110;2023-04-16T02:09:33;11.20;99.90
7472;DHT22;3777;48.722;8.110;2023-04-16T02:12:00;11.20;99.90
7472;DHT22;3777;48.722;8.110;2023-04-16T02:14:29;11.10;99.90
7472;DHT22;3777;48.722;8.110;2023-04-16T02:16:56;11.10;99.90
7472;DHT22;3777;48.722;8.110;2023-04-16T02:19:23;11.10;99.90
7472;DHT22;3777;48.722;8.110;2023-04-16T02:21:50;11.00;99.90
7472;DHT22;3777;48.722;8.110;2023-04-16T02:24:17;10.90;99.90
7472;DHT22;3777;48.722;8.110;2023-04-16T02:26:44;10.80;99.90
7472;DHT22;3777;48.722;8.110;2023-04-16T02:29:11;10.80;99.90
7472;DHT22;3777;48.722;8.110;2023-04-16T02:31:39;10.80;99.90
7472;DHT22;3777;48.722;8.110;2023-04-16T02:34:06;10.70;99.90
7472;DHT22;3777;48.722;8.110;2023-04-16T02:36:33;10.80;99.90
7472;DHT22;3777;48.722;8.110;2023-04-16T02:39:00;10.90;99.90
7472;DHT22;3777;48.722;8.110;2023-04-16T02:41:27;10.90;99.90
7472;DHT22;3777;48.722;8.110;2023-04-16T02:43:54;10.90;99.90
7472;DHT22;3777;48.722;8.110;2023-04-16T02:46:21;10.90;99.90
7472;DHT22;3777;48.722;8.110;2023-04-16T02:48:49;10.90;99.90
7472;DHT22;3777;48.722;8.110;2023-04-16T02:51:16;11.00;99.90
7472;DHT22;3777;48.722;8.110;2023-04-16T02:53:43;10.90;99.90
7472;DHT22;3777;48.722;8.110;2023-04-16T02:56:11;10.90;99.90
7472;DHT22;3777;48.722;8.110;2023-04-16T02:58:38;10.90;99.90
7472;DHT22;3777;48.722;8.110;2023-04-16T03:01:05;10.90;99.90
7472;DHT22;3777;48.722;8.110;2023-04-16T03:03:32;10.90;99.90
7472;DHT22;3777;48.722;8.110;2023-04-16T03:06:00;11.00;99.90
7472;DHT22;3777;48.722;8.110;2023-04-16T03:08:27;11.00;99.90
7472;DHT22;3777;48.722;8.110;2023-04-16T03:10:54;11.00;99.90
7472;DHT22;3777;48.722;8.110;2023-04-16T03:13:21;11.00;99.90
7472;DHT22;3777;48.722;8.110;2023-04-16T03:15:48;11.00;99.90
7472;DHT22;3777;48.722;8.110;2023-04-16T03:18:15;11.00;99.90
7472;DHT22;3777;48.722;8.110;2023-04-16T03:20:42;11.00;99.90
7472;DHT22;3777;48.722;8.110;2023-04-16T03:23:10;10.90;99.90
7472;DHT22;3777;48.722;8.110;2023-04-16T03:25:37;10.90;99.90
7472;DHT22;3777;48.722;8.110;2023-04-16T03:28:05;10.80;99.90
7472;DHT22;3777;48.722;8.110;2023-04-16T03:30:32;10.80;99.90
7472;DHT22;3777;48.722;8.110;2023-04-16T03:32:59;10.70;99.90
7472;DHT22;3777;48.722;8.110;2023-04-16T03:35:26;10.70;99.90
7472;DHT22;3777;48.722;8.110;2023-04-16T03:37:53;10.80;99.90
7472;DHT22;3777;48.722;8.110;2023-04-16T03:40:21;10.80;99.90
7472;DHT22;3777;48.722;8.110;2023-04-16T03:42:48;10.90;99.90
7472;DHT22;3777;48.722;8.110;2023-04-16T03:45:15;10.80;99.90
7472;DHT22;3777;48.722;8.110;2023-04-16T03:47:42;10.90;99.90
7472;DHT22;3777;48.722;8.110;2023-04-16T03:50:09;10.90;99.90
7472;DHT22;3777;48.722;8.110;2023-04-16T03:52:37;10.90;99.90
7472;DHT22;3777;48.722;8.110;2023-04-16T03:55:06;10.80;99.90
7472;DHT22;3777;48.722;8.110;2023-04-16T03:57:34;10.90;99.90
7472;DHT22;3777;48.722;8.110;2023-04-16T04:00:01;10.90;99.90
7472;DHT22;3777;48.722;8.110;2023-04-16T04:02:29;10.90;99.90
7472;DHT22;3777;48.722;8.110;2023-04-16T04:04:56;11.00;99.90
7472;DHT22;3777;48.722;8.110;2023-04-16T04:07:23;11.00;99.90
7472;DHT22;3777;48.722;8.110;2023-04-16T04:09:50;11.00;99.90
7472;DHT22;3777;48.722;8.110;2023-04-16T04:12:17;11.00;99.90
7472;DHT22;3777;48.722;8.110;2023-04-16T04:14:45;11.00;99.90
7472;DHT22;3777;48.722;8.110;2023-04-16T04:17:12;11.00;99.90
7472;DHT22;3777;48.722;8.110;2023-04-16T04:19:39;11.00;99.90
7472;DHT22;3777;48.722;8.110;2023-04-16T04:22:06;11.00;99.90
7472;DHT22;3777;48.722;8.110;2023-04-16T04:24:33;11.00;99.90
7472;DHT22;3777;48.722;8.110;2023-04-16T04:27:00;11.00;99.90
7472;DHT22;3777;48.722;8.110;2023-04-16T04:29:28;11.10;99.90
7472;DHT22;3777;48.722;8.110;2023-04-16T04:31:56;11.10;99.90
7472;DHT22;3777;48.722;8.110;2023-04-16T04:34:23;11.10;99.90
7472;DHT22;3777;48.722;8.110;2023-04-16T04:36:50;11.10;99.90
7472;DHT22;3777;48.722;8.110;2023-04-16T04:39:17;11.10;99.90
7472;DHT22;3777;48.722;8.110;2023-04-16T04:41:46;11.10;99.90
7472;DHT22;3777;48.722;8.110;2023-04-16T04:44:13;11.10;99.90
7472;DHT22;3777;48.722;8.110;2023-04-16T04:46:40;11.10;99.90
7472;DHT22;3777;48.722;8.110;2023-04-16T04:49:08;11.10;99.90
7472;DHT22;3777;48.722;8.110;2023-04-16T04:51:35;11.10;99.90
7472;DHT22;3777;48.722;8.110;2023-04-16T04:54:02;11.10;99.90
7472;DHT22;3777;48.722;8.110;2023-04-16T04:56:29;11.10;99.90
7472;DHT22;3777;48.722;8.110;2023-04-16T04:58:56;11.10;99.90
7472;DHT22;3777;48.722;8.110;2023-04-16T05:01:23;11.10;99.90
7472;DHT22;3777;48.722;8.110;2023-04-16T05:03:50;11.10;99.90
7472;DHT22;3777;48.722;8.110;2023-04-16T05:06:18;11.10;99.90
7472;DHT22;3777;48.722;8.110;2023-04-16T05:08:45;11.00;99.90
7472;DHT22;3777;48.722;8.110;2023-04-16T05:11:12;11.00;99.90
7472;DHT22;3777;48.722;8.110;2023-04-16T05:13:39;11.00;99.90
7472;DHT22;3777;48.722;8.110;2023-04-16T05:16:06;11.00;99.90
7472;DHT22;3777;48.722;8.110;2023-04-16T05:18:33;11.10;99.90
7472;DHT22;3777;48.722;8.110;2023-04-16T05:21:00;11.10;99.90
7472;DHT22;3777;48.722;8.110;2023-04-16T05:23:28;11.10;99.90
7472;DHT22;3777;48.722;8.110;2023-04-16T05:25:55;11.10;99.90
7472;DHT22;3777;48.722;8.110;2023-04-16T05:28:22;11.10;99.90
7472;DHT22;3777;48.722;8.110;2023-04-16T05:30:50;11.10;99.90
7472;DHT22;3777;48.722;8.110;2023-04-16T05:33:17;11.20;99.90
7472;DHT22;3777;48.722;8.110;2023-04-16T05:35:43;11.20;99.90
7472;DHT22;3777;48.722;8.110;2023-04-16T05:38:10;11.20;99.90
7472;DHT22;3777;48.722;8.110;2023-04-16T05:40:39;11.20;99.90
7472;DHT22;3777;48.722;8.110;2023-04-16T05:43:06;11.20;99.90
7472;DHT22;3777;48.722;8.110;2023-04-16T05:45:33;11.20;99.90
7472;DHT22;3777;48.722;8.110;2023-04-16T05:48:04;11.20;99.90
7472;DHT22;3777;48.722;8.110;2023-04-16T05:50:31;11.20;99.90
7472;DHT22;3777;48.722;8.110;2023-04-16T05:52:58;11.20;99.90
7472;DHT22;3777;48.722;8.110;2023-04-16T05:55:25;11.20;99.90
7472;DHT22;3777;48.722;8.110;2023-04-16T05:57:53;11.20;99.90
7472;DHT22;3777;48.722;8.110;2023-04-16T06:00:20;11.20;99.90
7472;DHT22;3777;48.722;8.110;2023-04-16T06:02:47;11.20;99.90
7472;DHT22;3777;48.722;8.110;2023-04-16T06:05:14;11.20;99.90
7472;DHT22;3777;48.722;8.110;2023-04-16T06:07:41;11.20;99.90
7472;DHT22;3777;48.722;8.110;2023-04-16T06:10:09;11.20;99.90
7472;DHT22;3777;48.722;8.110;2023-04-16T06:12:36;11.20;99.90
7472;DHT22;3777;48.722;8.110;2023-04-16T06:15:05;11.20;99.90
7472;DHT22;3777;48.722;8.110;2023-04-16T06:17:33;11.20;99.90
7472;DHT22;3777;48.722;8.110;2023-04-16T06:19:59;11.30;99.90
7472;DHT22;3777;48.722;8.110;2023-04-16T06:22:26;11.30;99.90
7472;DHT22;3777;48.722;8.110;2023-04-16T06:24:53;11.30;99.90
7472;DHT22;3777;48.722;8.110;2023-04-16T06:27:20;11.30;99.90
7472;DHT22;3777;48.722;8.110;2023-04-16T06:29:47;11.30;99.90
7472;DHT22;3777;48.722;8.110;2023-04-16T06:32:16;11.30;99.90
7472;DHT22;3777;48.722;8.110;2023-04-16T06:34:43;11.30;99.90
7472;DHT22;3777;48.722;8.110;2023-04-16T06:37:10;11.20;99.90
7472;DHT22;3777;48.722;8.110;2023-04-16T06:39:37;11.30;99.90
7472;DHT22;3777;48.722;8.110;2023-04-16T06:42:05;11.30;99.90
7472;DHT22;3777;48.722;8.110;2023-04-16T06:44:32;11.20;99.90
7472;DHT22;3777;48.722;8.110;2023-04-16T06:46:59;11.20;99.90
7472;DHT22;3777;48.722;8.110;2023-04-16T06:49:27;11.10;99.90
7472;DHT22;3777;48.722;8.110;2023-04-16T06:51:54;11.00;99.90
7472;DHT22;3777;48.722;8.110;2023-04-16T06:54:21;10.80;99.90
7472;DHT22;3777;48.722;8.110;2023-04-16T06:56:48;10.90;99.90
7472;DHT22;3777;48.722;8.110;2023-04-16T06:59:15;11.00;99.90
7472;DHT22;3777;48.722;8.110;2023-04-16T07:01:42;10.90;99.90
7472;DHT22;3777;48.722;8.110;2023-04-16T07:04:10;10.70;99.90
7472;DHT22;3777;48.722;8.110;2023-04-16T07:06:39;10.50;99.90
7472;DHT22;3777;48.722;8.110;2023-04-16T07:09:05;10.50;99.90
7472;DHT22;3777;48.722;8.110;2023-04-16T07:11:33;10.60;99.90
7472;DHT22;3777;48.722;8.110;2023-04-16T07:14:00;10.70;99.90
7472;DHT22;3777;48.722;8.110;2023-04-16T07:16:27;10.80;99.90
7472;DHT22;3777;48.722;8.110;2023-04-16T07:18:54;10.80;99.90
7472;DHT22;3777;48.722;8.110;2023-04-16T07:21:21;10.80;99.90
7472;DHT22;3777;48.722;8.110;2023-04-16T07:23:49;10.80;99.90
7472;DHT22;3777;48.722;8.110;2023-04-16T07:26:16;10.80;99.90
7472;DHT22;3777;48.722;8.110;2023-04-16T07:28:43;10.80;99.90
7472;DHT22;3777;48.722;8.110;2023-04-16T07:31:10;10.90;99.90
7472;DHT22;3777;48.722;8.110;2023-04-16T07:33:37;10.90;99.90
7472;DHT22;3777;48.722;8.110;2023-04-16T07:36:04;11.00;99.90
7472;DHT22;3777;48.722;8.110;2023-04-16T07:38:31;10.90;99.90
7472;DHT22;3777;48.722;8.110;2023-04-16T07:41:00;10.80;99.90
7472;DHT22;3777;48.722;8.110;2023-04-16T07:43:27;10.90;99.90
7472;DHT22;3777;48.722;8.110;2023-04-16T07:45:54;11.00;99.90
7472;DHT22;3777;48.722;8.110;2023-04-16T07:48:21;11.20;99.90
7472;DHT22;3777;48.722;8.110;2023-04-16T07:50:48;11.30;99.90
7472;DHT22;3777;48.722;8.110;2023-04-16T07:53:15;11.50;99.90
7472;DHT22;3777;48.722;8.110;2023-04-16T07:55:42;11.60;99.90
7472;DHT22;3777;48.722;8.110;2023-04-16T07:58:10;11.70;99.90
7472;DHT22;3777;48.722;8.110;2023-04-16T08:00:38;11.60;99.90
7472;DHT22;3777;48.722;8.110;2023-04-16T08:03:05;11.80;99.90
7472;DHT22;3777;48.722;8.110;2023-04-16T08:05:32;11.90;99.90
7472;DHT22;3777;48.722;8.110;2023-04-16T08:07:59;11.90;99.90
7472;DHT22;3777;48.722;8.110;2023-04-16T08:10:26;12.00;99.90
7472;DHT22;3777;48.722;8.110;2023-04-16T08:12:53;12.10;99.90
7472;DHT22;3777;48.722;8.110;2023-04-16T08:15:21;12.20;99.90
7472;DHT22;3777;48.722;8.110;2023-04-16T08:17:48;12.20;99.90
7472;DHT22;3777;48.722;8.110;2023-04-16T08:20:15;12.30;99.90
7472;DHT22;3777;48.722;8.110;2023-04-16T08:22:42;12.40;99.90
7472;DHT22;3777;48.722;8.110;2023-04-16T08:25:10;12.40;99.90
7472;DHT22;3777;48.722;8.110;2023-04-16T08:27:37;12.40;99.90
7472;DHT22;3777;48.722;8.110;2023-04-16T08:30:05;12.40;99.90
7472;DHT22;3777;48.722;8.110;2023-04-16T08:32:34;12.30;99.90
7472;DHT22;3777;48.722;8.110;2023-04-16T08:35:01;12.30;99.90
7472;DHT22;3777;48.722;8.110;2023-04-16T08:37:28;12.30;99.90
7472;DHT22;3777;48.722;8.110;2023-04-16T08:39:55;12.30;99.90
7472;DHT22;3777;48.722;8.110;2023-04-16T08:42:27;12.30;99.90
7472;DHT22;3777;48.722;8.110;2023-04-16T08:45:02;12.20;99.90
7472;DHT22;3777;48.722;8.110;2023-04-16T08:47:35;12.30;99.90
7472;DHT22;3777;48.722;8.110;2023-04-16T08:50:03;12.30;99.90
7472;DHT22;3777;48.722;8.110;2023-04-16T08:52:31;12.30;99.90
7472;DHT22;3777;48.722;8.110;2023-04-16T08:55:03;12.40;99.90
7472;DHT22;3777;48.722;8.110;2023-04-16T08:57:37;12.40;99.90
7472;DHT22;3777;48.722;8.110;2023-04-16T09:00:06;12.40;99.90
7472;DHT22;3777;48.722;8.110;2023-04-16T09:02:36;12.30;99.90
7472;DHT22;3777;48.722;8.110;2023-04-16T09:05:05;12.40;99.90
7472;DHT22;3777;48.722;8.110;2023-04-16T09:07:33;12.50;99.90
7472;DHT22;3777;48.722;8.110;2023-04-16T09:10:00;12.60;99.90
7472;DHT22;3777;48.722;8.110;2023-04-16T09:12:29;12.70;99.90
7472;DHT22;3777;48.722;8.110;2023-04-16T09:14:56;12.80;99.90
7472;DHT22;3777;48.722;8.110;2023-04-16T09:17:24;12.80;99.90
7472;DHT22;3777;48.722;8.110;2023-04-16T09:19:53;12.80;99.90
7472;DHT22;3777;48.722;8.110;2023-04-16T09:22:20;12.80;99.90
7472;DHT22;3777;48.722;8.110;2023-04-16T09:24:47;12.80;99.90
7472;DHT22;3777;48.722;8.110;2023-04-16T09:27:14;12.90;99.90
7472;DHT22;3777;48.722;8.110;2023-04-16T09:29:42;12.80;99.90
7472;DHT22;3777;48.722;8.110;2023-04-16T09:32:10;12.90;99.90
7472;DHT22;3777;48.722;8.110;2023-04-16T09:34:54;13.10;99.90
7472;DHT22;3777;48.722;8.110;2023-04-16T09:37:21;13.20;99.90
7472;DHT22;3777;48.722;8.110;2023-04-16T09:39:52;13.30;99.90
7472;DHT22;3777;48.722;8.110;2023-04-16T09:42:21;13.30;99.90
7472;DHT22;3777;48.722;8.110;2023-04-16T09:44:50;13.30;99.90
7472;DHT22;3777;48.722;8.110;2023-04-16T09:47:17;13.30;99.90
7472;DHT22;3777;48.722;8.110;2023-04-16T09:49:44;13.30;99.90
7472;DHT22;3777;48.722;8.110;2023-04-16T09:52:16;13.40;99.90
7472;DHT22;3777;48.722;8.110;2023-04-16T09:54:47;13.50;99.90
7472;DHT22;3777;48.722;8.110;2023-04-16T09:57:17;13.40;99.90
7472;DHT22;3777;48.722;8.110;2023-04-16T09:59:46;13.50;99.90
7472;DHT22;3777;48.722;8.110;2023-04-16T10:02:13;13.60;99.90
7472;DHT22;3777;48.722;8.110;2023-04-16T10:04:47;13.70;99.90
7472;DHT22;3777;48.722;8.110;2023-04-16T10:07:16;13.80;99.90
7472;DHT22;3777;48.722;8.110;2023-04-16T10:09:43;13.70;99.90
7472;DHT22;3777;48.722;8.110;2023-04-16T10:12:11;13.70;99.90
7472;DHT22;3777;48.722;8.110;2023-04-16T10:14:38;13.70;99.90
7472;DHT22;3777;48.722;8.110;2023-04-16T10:17:05;13.70;99.90
7472;DHT22;3777;48.722;8.110;2023-04-16T10:19:33;13.70;99.90
7472;DHT22;3777;48.722;8.110;2023-04-16T10:22:00;13.70;99.90
7472;DHT22;3777;48.722;8.110;2023-04-16T10:24:30;13.50;99.90
7472;DHT22;3777;48.722;8.110;2023-04-16T10:26:58;13.50;99.90
7472;DHT22;3777;48.722;8.110;2023-04-16T10:29:28;13.50;99.90
7472;DHT22;3777;48.722;8.110;2023-04-16T10:31:56;13.40;99.90
7472;DHT22;3777;48.722;8.110;2023-04-16T10:34:23;13.10;99.90
7472;DHT22;3777;48.722;8.110;2023-04-16T10:36:52;13.10;99.90
7472;DHT22;3777;48.722;8.110;2023-04-16T10:39:20;12.90;99.90
7472;DHT22;3777;48.722;8.110;2023-04-16T10:41:50;12.70;99.90
7472;DHT22;3777;48.722;8.110;2023-04-16T10:44:30;12.70;99.90
7472;DHT22;3777;48.722;8.110;2023-04-16T10:46:58;12.90;99.90
7472;DHT22;3777;48.722;8.110;2023-04-16T10:49:25;13.00;99.90
7472;DHT22;3777;48.722;8.110;2023-04-16T10:51:53;13.10;99.90
7472;DHT22;3777;48.722;8.110;2023-04-16T10:54:23;13.20;99.90
7472;DHT22;3777;48.722;8.110;2023-04-16T10:56:55;13.20;99.90
7472;DHT22;3777;48.722;8.110;2023-04-16T10:59:23;13.20;99.90
7472;DHT22;3777;48.722;8.110;2023-04-16T11:01:52;13.20;99.90
7472;DHT22;3777;48.722;8.110;2023-04-16T11:04:27;13.20;99.90
7472;DHT22;3777;48.722;8.110;2023-04-16T11:07:13;13.20;99.90
7472;DHT22;3777;48.722;8.110;2023-04-16T11:09:45;13.30;99.90
7472;DHT22;3777;48.722;8.110;2023-04-16T11:12:17;13.30;99.90
7472;DHT22;3777;48.722;8.110;2023-04-16T11:14:47;13.40;99.90
7472;DHT22;3777;48.722;8.110;2023-04-16T11:17:14;13.40;99.90
7472;DHT22;3777;48.722;8.110;2023-04-16T11:19:42;13.40;99.90
7472;DHT22;3777;48.722;8.110;2023-04-16T11:22:11;13.40;99.90
7472;DHT22;3777;48.722;8.110;2023-04-16T11:24:39;13.50;99.90
7472;DHT22;3777;48.722;8.110;2023-04-16T11:27:07;13.60;99.90
7472;DHT22;3777;48.722;8.110;2023-04-16T11:29:35;13.60;99.90
7472;DHT22;3777;48.722;8.110;2023-04-16T11:32:02;13.60;99.90
7472;DHT22;3777;48.722;8.110;2023-04-16T11:34:29;13.70;99.90
7472;DHT22;3777;48.722;8.110;2023-04-16T11:36:56;13.70;99.90
7472;DHT22;3777;48.722;8.110;2023-04-16T11:39:23;13.70;99.90
7472;DHT22;3777;48.722;8.110;2023-04-16T11:41:51;13.70;99.90
7472;DHT22;3777;48.722;8.110;2023-04-16T11:44:23;13.70;99.90
7472;DHT22;3777;48.722;8.110;2023-04-16T11:46:52;13.70;99.90
7472;DHT22;3777;48.722;8.110;2023-04-16T11:49:26;13.70;99.90
7472;DHT22;3777;48.722;8.110;2023-04-16T11:51:53;13.70;99.90
7472;DHT22;3777;48.722;8.110;2023-04-16T11:54:21;13.60;99.90
7472;DHT22;3777;48.722;8.110;2023-04-16T11:56:49;13.50;99.90
7472;DHT22;3777;48.722;8.110;2023-04-16T11:59:18;13.60;99.90
7472;DHT22;3777;48.722;8.110;2023-04-16T12:01:46;13.60;99.90
7472;DHT22;3777;48.722;8.110;2023-04-16T12:04:17;13.50;99.90
7472;DHT22;3777;48.722;8.110;2023-04-16T12:07:08;13.50;99.90
7472;DHT22;3777;48.722;8.110;2023-04-16T12:09:35;13.50;99.90
7472;DHT22;3777;48.722;8.110;2023-04-16T12:12:03;13.40;99.90
7472;DHT22;3777;48.722;8.110;2023-04-16T12:14:30;13.40;99.90
7472;DHT22;3777;48.722;8.110;2023-04-16T12:17:15;13.30;99.90
7472;DHT22;3777;48.722;8.110;2023-04-16T12:19:50;13.30;99.90
7472;DHT22;3777;48.722;8.110;2023-04-16T12:22:17;13.20;99.90
7472;DHT22;3777;48.722;8.110;2023-04-16T12:24:55;13.20;99.90
7472;DHT22;3777;48.722;8.110;2023-04-16T12:27:22;13.10;99.90
7472;DHT22;3777;48.722;8.110;2023-04-16T12:30:03;13.10;99.90
7472;DHT22;3777;48.722;8.110;2023-04-16T12:32:31;13.00;99.90
7472;DHT22;3777;48.722;8.110;2023-04-16T12:35:00;13.00;99.90
7472;DHT22;3777;48.722;8.110;2023-04-16T12:37:27;13.10;99.90
7472;DHT22;3777;48.722;8.110;2023-04-16T12:39:54;13.10;99.90
7472;DHT22;3777;48.722;8.110;2023-04-16T12:42:21;13.20;99.90
7472;DHT22;3777;48.722;8.110;2023-04-16T12:44:48;13.20;99.90
7472;DHT22;3777;48.722;8.110;2023-04-16T12:47:15;13.30;99.90
7472;DHT22;3777;48.722;8.110;2023-04-16T12:49:42;13.40;99.90
7472;DHT22;3777;48.722;8.110;2023-04-16T12:52:11;13.50;99.90
7472;DHT22;3777;48.722;8.110;2023-04-16T12:54:38;13.50;99.90
7472;DHT22;3777;48.722;8.110;2023-04-16T12:57:05;13.60;99.90
7472;DHT22;3777;48.722;8.110;2023-04-16T12:59:32;13.60;99.90
7472;DHT22;3777;48.722;8.110;2023-04-16T13:02:00;13.60;99.90
7472;DHT22;3777;48.722;8.110;2023-04-16T13:04:27;13.70;99.90
7472;DHT22;3777;48.722;8.110;2023-04-16T13:06:54;13.70;99.90
7472;DHT22;3777;48.722;8.110;2023-04-16T13:09:22;13.70;99.90
7472;DHT22;3777;48.722;8.110;2023-04-16T13:11:49;13.70;99.90
7472;DHT22;3777;48.722;8.110;2023-04-16T13:14:16;13.90;99.90
7472;DHT22;3777;48.722;8.110;2023-04-16T13:16:43;13.90;99.90
7472;DHT22;3777;48.722;8.110;2023-04-16T13:19:10;13.90;99.90
7472;DHT22;3777;48.722;8.110;2023-04-16T13:21:38;14.00;99.90
7472;DHT22;3777;48.722;8.110;2023-04-16T13:24:05;14.10;99.90
7472;DHT22;3777;48.722;8.110;2023-04-16T13:26:33;14.20;99.90
7472;DHT22;3777;48.722;8.110;2023-04-16T13:29:01;14.30;99.90
7472;DHT22;3777;48.722;8.110;2023-04-16T13:31:28;14.50;99.90
7472;DHT22;3777;48.722;8.110;2023-04-16T13:33:55;14.60;99.90
7472;DHT22;3777;48.722;8.110;2023-04-16T13:36:22;14.80;99.90
7472;DHT22;3777;48.722;8.110;2023-04-16T13:38:49;14.90;99.90
7472;DHT22;3777;48.722;8.110;2023-04-16T13:41:16;15.10;99.90
7472;DHT22;3777;48.722;8.110;2023-04-16T13:43:44;15.20;99.90
7472;DHT22;3777;48.722;8.110;2023-04-16T13:46:11;15.20;99.90
7472;DHT22;3777;48.722;8.110;2023-04-16T13:48:38;15.20;99.90
7472;DHT22;3777;48.722;8.110;2023-04-16T13:51:05;15.20;99.90
7472;DHT22;3777;48.722;8.110;2023-04-16T13:53:32;15.20;99.90
7472;DHT22;3777;48.722;8.110;2023-04-16T13:56:00;15.00;99.90
7472;DHT22;3777;48.722;8.110;2023-04-16T13:58:28;14.80;99.90
7472;DHT22;3777;48.722;8.110;2023-04-16T14:00:56;14.70;99.90
7472;DHT22;3777;48.722;8.110;2023-04-16T14:03:24;14.60;99.90
7472;DHT22;3777;48.722;8.110;2023-04-16T14:05:51;14.40;99.90
7472;DHT22;3777;48.722;8.110;2023-04-16T14:08:18;14.30;99.90
7472;DHT22;3777;48.722;8.110;2023-04-16T14:10:46;14.20;99.90
7472;DHT22;3777;48.722;8.110;2023-04-16T14:13:13;14.00;99.90
7472;DHT22;3777;48.722;8.110;2023-04-16T14:15:40;13.90;99.90
7472;DHT22;3777;48.722;8.110;2023-04-16T14:18:08;13.80;99.90
7472;DHT22;3777;48.722;8.110;2023-04-16T14:20:35;13.70;99.90
7472;DHT22;3777;48.722;8.110;2023-04-16T14:23:04;13.60;99.90
7472;DHT22;3777;48.722;8.110;2023-04-16T14:25:31;13.60;99.90
7472;DHT22;3777;48.722;8.110;2023-04-16T14:27:58;13.60;99.90
7472;DHT22;3777;48.722;8.110;2023-04-16T14:30:25;13.50;99.90
7472;DHT22;3777;48.722;8.110;2023-04-16T14:32:52;13.50;99.90
7472;DHT22;3777;48.722;8.110;2023-04-16T14:35:21;13.40;99.90
7472;DHT22;3777;48.722;8.110;2023-04-16T14:37:48;13.30;99.90
7472;DHT22;3777;48.722;8.110;2023-04-16T14:40:16;13.30;99.90
7472;DHT22;3777;48.722;8.110;2023-04-16T14:42:43;13.20;99.90
7472;DHT22;3777;48.722;8.110;2023-04-16T14:45:10;13.20;99.90
7472;DHT22;3777;48.722;8.110;2023-04-16T14:47:37;13.20;99.90
7472;DHT22;3777;48.722;8.110;2023-04-16T14:50:10;13.20;99.90
7472;DHT22;3777;48.722;8.110;2023-04-16T14:52:39;13.20;99.90
7472;DHT22;3777;48.722;8.110;2023-04-16T14:55:06;13.20;99.90
7472;DHT22;3777;48.722;8.110;2023-04-16T14:57:34;13.20;99.90
7472;DHT22;3777;48.722;8.110;2023-04-16T15:00:01;13.20;99.90
7472;DHT22;3777;48.722;8.110;2023-04-16T15:02:32;13.20;99.90
7472;DHT22;3777;48.722;8.110;2023-04-16T15:05:00;13.20;99.90
7472;DHT22;3777;48.722;8.110;2023-04-16T15:07:27;13.20;99.90
7472;DHT22;3777;48.722;8.110;2023-04-16T15:09:55;13.20;99.90
7472;DHT22;3777;48.722;8.110;2023-04-16T15:12:22;13.20;99.90
7472;DHT22;3777;48.722;8.110;2023-04-16T15:14:50;13.20;99.90
7472;DHT22;3777;48.722;8.110;2023-04-16T15:17:18;13.30;99.90
7472;DHT22;3777;48.722;8.110;2023-04-16T15:19:45;13.30;99.90
7472;DHT22;3777;48.722;8.110;2023-04-16T15:22:12;13.30;99.90
7472;DHT22;3777;48.722;8.110;2023-04-16T15:24:39;13.30;99.90
7472;DHT22;3777;48.722;8.110;2023-04-16T15:27:08;13.40;99.90
7472;DHT22;3777;48.722;8.110;2023-04-16T15:29:36;13.40;99.90
7472;DHT22;3777;48.722;8.110;2023-04-16T15:32:03;13.40;99.90
7472;DHT22;3777;48.722;8.110;2023-04-16T15:34:31;13.40;99.90
7472;DHT22;3777;48.722;8.110;2023-04-16T15:36:58;13.40;99.90
7472;DHT22;3777;48.722;8.110;2023-04-16T15:39:25;13.30;99.90
7472;DHT22;3777;48.722;8.110;2023-04-16T15:41:52;13.30;99.90
7472;DHT22;3777;48.722;8.110;2023-04-16T15:44:20;13.30;99.90
7472;DHT22;3777;48.722;8.110;2023-04-16T15:46:47;13.30;99.90
7472;DHT22;3777;48.722;8.110;2023-04-16T15:49:14;13.30;99.90
7472;DHT22;3777;48.722;8.110;2023-04-16T15:51:41;13.30;99.90
7472;DHT22;3777;48.722;8.110;2023-04-16T15:54:08;13.30;99.90
7472;DHT22;3777;48.722;8.110;2023-04-16T15:56:35;13.20;99.90
7472;DHT22;3777;48.722;8.110;2023-04-16T15:59:02;13.20;99.90
7472;DHT22;3777;48.722;8.110;2023-04-16T16:01:30;13.20;99.90
7472;DHT22;3777;48.722;8.110;2023-04-16T16:03:57;13.20;99.90
7472;DHT22;3777;48.722;8.110;2023-04-16T16:06:25;13.20;99.90